sensor_id;sensor_type;location;lat;lon;timestamp;temperature;humidity
52615;DHT22;38508;53.158;6.614;2023-02-11T00:00:55;7.50;99.90
52615;DHT22;38508;53.158;6.614;2023-02-11T00:03:21;7.50;99.90
52615;DHT22;38508;53.158;6.614;2023-02-11T00:05:56;7.50;99.90
52615;DHT22;38508;53.158;6.614;2023-02-11T00:08:22;7.50;99.90
52615;DHT22;38508;53.158;6.614;2023-02-11T00:10:51;7.50;99.90
52615;DHT22;38508;53.158;6.614;2023-02-11T00:13:17;7.50;99.90
52615;DHT22;38508;53.158;6.614;2023-02-11T00:15:43;7.70;99.90
52615;DHT22;38508;53.158;6.614;2023-02-11T00:18:08;7.70;99.90
52615;DHT22;38508;53.158;6.614;2023-02-11T00:20:34;7.70;99.90
52615;DHT22;38508;53.158;6.614;2023-02-11T00:23:02;7.70;99.90
52615;DHT22;38508;53.158;6.614;2023-02-11T00:25:28;7.70;99.90
52615;DHT22;38508;53.158;6.614;2023-02-11T00:27:53;7.60;99.90
52615;DHT22;38508;53.158;6.614;2023-02-11T00:30:19;7.60;99.90
52615;DHT22;38508;53.158;6.614;2023-02-11T00:32:45;7.60;99.90
52615;DHT22;38508;53.158;6.614;2023-02-11T00:35:11;7.60;99.90
52615;DHT22;38508;53.158;6.614;2023-02-11T00:37:37;7.60;99.90
52615;DHT22;38508;53.158;6.614;2023-02-11T00:40:03;7.60;99.90
52615;DHT22;38508;53.158;6.614;2023-02-11T00:42:29;7.60;99.90
52615;DHT22;38508;53.158;6.614;2023-02-11T00:44:55;7.60;99.90
52615;DHT22;38508;53.158;6.614;2023-02-11T00:47:20;7.60;99.90
52615;DHT22;38508;53.158;6.614;2023-02-11T00:49:46;7.50;99.90
52615;DHT22;38508;53.158;6.614;2023-02-11T00:52:12;7.50;99.90
52615;DHT22;38508;53.158;6.614;2023-02-11T00:54:38;7.50;99.90
52615;DHT22;38508;53.158;6.614;2023-02-11T00:57:03;7.50;99.90
52615;DHT22;38508;53.158;6.614;2023-02-11T00:59:29;7.40;99.90
52615;DHT22;38508;53.158;6.614;2023-02-11T01:01:55;7.50;99.90
52615;DHT22;38508;53.158;6.614;2023-02-11T01:04:20;7.50;99.90
52615;DHT22;38508;53.158;6.614;2023-02-11T01:06:46;7.60;99.90
52615;DHT22;38508;53.158;6.614;2023-02-11T01:09:12;7.70;99.90
52615;DHT22;38508;53.158;6.614;2023-02-11T01:11:37;7.70;99.90
52615;DHT22;38508;53.158;6.614;2023-02-11T01:14:03;7.70;99.90
52615;DHT22;38508;53.158;6.614;2023-02-11T01:16:29;7.60;99.90
52615;DHT22;38508;53.158;6.614;2023-02-11T01:18:55;7.50;99.90
52615;DHT22;38508;53.158;6.614;2023-02-11T01:21:20;7.50;99.90
52615;DHT22;38508;53.158;6.614;2023-02-11T01:23:46;7.50;99.90
52615;DHT22;38508;53.158;6.614;2023-02-11T01:26:12;7.50;99.90
52615;DHT22;38508;53.158;6.614;2023-02-11T01:28:38;7.50;99.90
52615;DHT22;38508;53.158;6.614;2023-02-11T01:31:04;7.50;99.90
52615;DHT22;38508;53.158;6.614;2023-02-11T01:33:30;7.40;99.90
52615;DHT22;38508;53.158;6.614;2023-02-11T01:35:59;7.40;99.90
52615;DHT22;38508;53.158;6.614;2023-02-11T01:38:25;7.40;99.90
52615;DHT22;38508;53.158;6.614;2023-02-11T01:41:00;7.40;99.90
52615;DHT22;38508;53.158;6.614;2023-02-11T01:43:29;7.40;99.90
52615;DHT22;38508;53.158;6.614;2023-02-11T01:48:43;7.30;99.90
52615;DHT22;38508;53.158;6.614;2023-02-11T01:51:18;7.30;99.90
52615;DHT22;38508;53.158;6.614;2023-02-11T01:53:45;7.30;99.90
52615;DHT22;38508;53.158;6.614;2023-02-11T01:56:33;7.30;99.90
52615;DHT22;38508;53.158;6.614;2023-02-11T01:59:23;7.30;99.90
52615;DHT22;38508;53.158;6.614;2023-02-11T02:01:57;7.30;99.90
52615;DHT22;38508;53.158;6.614;2023-02-11T02:04:26;7.20;99.90
52615;DHT22;38508;53.158;6.614;2023-02-11T02:07:08;7.20;99.90
52615;DHT22;38508;53.158;6.614;2023-02-11T02:09:45;7.30;99.90
52615;DHT22;38508;53.158;6.614;2023-02-11T02:12:13;7.30;99.90
52615;DHT22;38508;53.158;6.614;2023-02-11T02:14:39;7.30;99.90
52615;DHT22;38508;53.158;6.614;2023-02-11T02:17:09;7.20;99.90
52615;DHT22;38508;53.158;6.614;2023-02-11T02:34:11;7.20;99.90
52615;DHT22;38508;53.158;6.614;2023-02-11T02:37:00;7.20;99.90
52615;DHT22;38508;53.158;6.614;2023-02-11T02:39:33;7.10;99.90
52615;DHT22;38508;53.158;6.614;2023-02-11T02:42:00;7.20;99.90
52615;DHT22;38508;53.158;6.614;2023-02-11T02:44:27;7.10;99.90
52615;DHT22;38508;53.158;6.614;2023-02-11T02:46:53;7.10;99.90
52615;DHT22;38508;53.158;6.614;2023-02-11T02:49:19;7.20;99.90
52615;DHT22;38508;53.158;6.614;2023-02-11T02:54:52;7.10;99.90
52615;DHT22;38508;53.158;6.614;2023-02-11T03:06:11;7.20;99.90
52615;DHT22;38508;53.158;6.614;2023-02-11T03:08:43;7.30;99.90
52615;DHT22;38508;53.158;6.614;2023-02-11T03:11:11;7.30;99.90
52615;DHT22;38508;53.158;6.614;2023-02-11T03:13:40;7.20;99.90
52615;DHT22;38508;53.158;6.614;2023-02-11T03:16:17;7.30;99.90
52615;DHT22;38508;53.158;6.614;2023-02-11T03:19:10;7.40;99.90
52615;DHT22;38508;53.158;6.614;2023-02-11T03:21:36;7.40;99.90
52615;DHT22;38508;53.158;6.614;2023-02-11T03:24:07;7.40;99.90
52615;DHT22;38508;53.158;6.614;2023-02-11T03:26:45;7.40;99.90
52615;DHT22;38508;53.158;6.614;2023-02-11T03:29:35;7.40;99.90
52615;DHT22;38508;53.158;6.614;2023-02-11T03:37:51;7.50;99.90
52615;DHT22;38508;53.158;6.614;2023-02-11T03:40:27;7.50;99.90
52615;DHT22;38508;53.158;6.614;2023-02-11T03:43:12;7.50;99.90
52615;DHT22;38508;53.158;6.614;2023-02-11T03:45:42;7.50;99.90
52615;DHT22;38508;53.158;6.614;2023-02-11T03:48:21;7.60;99.90
52615;DHT22;38508;53.158;6.614;2023-02-11T03:50:49;7.70;99.90
52615;DHT22;38508;53.158;6.614;2023-02-11T03:53:17;7.80;99.90
52615;DHT22;38508;53.158;6.614;2023-02-11T03:55:46;7.80;99.90
52615;DHT22;38508;53.158;6.614;2023-02-11T03:58:12;7.80;99.90
52615;DHT22;38508;53.158;6.614;2023-02-11T04:00:39;7.80;99.90
52615;DHT22;38508;53.158;6.614;2023-02-11T04:03:07;7.80;99.90
52615;DHT22;38508;53.158;6.614;2023-02-11T04:05:33;7.80;99.90
52615;DHT22;38508;53.158;6.614;2023-02-11T04:07:58;7.70;99.90
52615;DHT22;38508;53.158;6.614;2023-02-11T04:10:24;7.70;99.90
52615;DHT22;38508;53.158;6.614;2023-02-11T04:12:50;7.70;99.90
52615;DHT22;38508;53.158;6.614;2023-02-11T04:15:16;7.80;99.90
52615;DHT22;38508;53.158;6.614;2023-02-11T04:17:43;7.80;99.90
52615;DHT22;38508;53.158;6.614;2023-02-11T04:20:10;7.90;99.90
52615;DHT22;38508;53.158;6.614;2023-02-11T04:22:36;7.80;99.90
52615;DHT22;38508;53.158;6.614;2023-02-11T04:25:02;7.80;99.90
52615;DHT22;38508;53.158;6.614;2023-02-11T04:27:28;7.80;99.90
52615;DHT22;38508;53.158;6.614;2023-02-11T04:29:54;7.90;99.90
52615;DHT22;38508;53.158;6.614;2023-02-11T04:32:20;8.00;99.90
52615;DHT22;38508;53.158;6.614;2023-02-11T04:34:45;8.00;99.90
52615;DHT22;38508;53.158;6.614;2023-02-11T04:37:11;8.10;99.90
52615;DHT22;38508;53.158;6.614;2023-02-11T04:39:37;8.00;99.90
52615;DHT22;38508;53.158;6.614;2023-02-11T04:42:03;8.00;99.90
52615;DHT22;38508;53.158;6.614;2023-02-11T04:44:29;7.90;99.90
52615;DHT22;38508;53.158;6.614;2023-02-11T04:46:54;7.90;99.90
52615;DHT22;38508;53.158;6.614;2023-02-11T04:49:20;7.90;99.90
52615;DHT22;38508;53.158;6.614;2023-02-11T04:51:46;7.90;99.90
52615;DHT22;38508;53.158;6.614;2023-02-11T04:54:12;7.80;99.90
52615;DHT22;38508;53.158;6.614;2023-02-11T04:56:38;7.90;99.90
52615;DHT22;38508;53.158;6.614;2023-02-11T04:59:04;7.90;99.90
52615;DHT22;38508;53.158;6.614;2023-02-11T05:01:30;7.90;99.90
52615;DHT22;38508;53.158;6.614;2023-02-11T05:03:56;7.90;99.90
52615;DHT22;38508;53.158;6.614;2023-02-11T05:06:22;7.90;99.90
52615;DHT22;38508;53.158;6.614;2023-02-11T05:08:48;7.90;99.90
52615;DHT22;38508;53.158;6.614;2023-02-11T05:11:17;7.90;99.90
52615;DHT22;38508;53.158;6.614;2023-02-11T05:13:43;7.90;99.90
52615;DHT22;38508;53.158;6.614;2023-02-11T05:16:10;7.90;99.90
52615;DHT22;38508;53.158;6.614;2023-02-11T05:18:37;8.00;99.90
52615;DHT22;38508;53.158;6.614;2023-02-11T05:21:12;7.90;99.90
52615;DHT22;38508;53.158;6.614;2023-02-11T05:23:39;7.90;99.90
52615;DHT22;38508;53.158;6.614;2023-02-11T05:26:05;8.00;99.90
52615;DHT22;38508;53.158;6.614;2023-02-11T05:28:30;8.00;99.90
52615;DHT22;38508;53.158;6.614;2023-02-11T05:30:57;7.90;99.90
52615;DHT22;38508;53.158;6.614;2023-02-11T05:33:24;7.90;99.90
52615;DHT22;38508;53.158;6.614;2023-02-11T05:35:50;7.90;99.90
52615;DHT22;38508;53.158;6.614;2023-02-11T05:38:15;7.80;99.90
52615;DHT22;38508;53.158;6.614;2023-02-11T05:40:41;8.00;99.90
52615;DHT22;38508;53.158;6.614;2023-02-11T05:43:07;7.90;99.90
52615;DHT22;38508;53.158;6.614;2023-02-11T05:45:33;7.90;99.90
52615;DHT22;38508;53.158;6.614;2023-02-11T05:47:59;8.00;99.90
52615;DHT22;38508;53.158;6.614;2023-02-11T05:50:25;8.00;99.90
52615;DHT22;38508;53.158;6.614;2023-02-11T05:52:51;8.00;99.90
52615;DHT22;38508;53.158;6.614;2023-02-11T05:55:16;8.00;99.90
52615;DHT22;38508;53.158;6.614;2023-02-11T05:57:42;7.90;99.90
52615;DHT22;38508;53.158;6.614;2023-02-11T06:00:08;7.90;99.90
52615;DHT22;38508;53.158;6.614;2023-02-11T06:02:34;7.90;99.90
52615;DHT22;38508;53.158;6.614;2023-02-11T06:05:00;8.00;99.90
52615;DHT22;38508;53.158;6.614;2023-02-11T06:07:25;8.10;99.90
52615;DHT22;38508;53.158;6.614;2023-02-11T06:09:51;8.10;99.90
52615;DHT22;38508;53.158;6.614;2023-02-11T06:12:17;8.10;99.90
52615;DHT22;38508;53.158;6.614;2023-02-11T06:14:43;8.10;99.90
52615;DHT22;38508;53.158;6.614;2023-02-11T06:17:09;8.10;99.90
52615;DHT22;38508;53.158;6.614;2023-02-11T06:19:34;8.20;99.90
52615;DHT22;38508;53.158;6.614;2023-02-11T06:22:00;8.30;99.90
52615;DHT22;38508;53.158;6.614;2023-02-11T06:24:26;8.30;99.90
52615;DHT22;38508;53.158;6.614;2023-02-11T06:26:51;8.20;99.90
52615;DHT22;38508;53.158;6.614;2023-02-11T06:29:17;8.10;99.90
52615;DHT22;38508;53.158;6.614;2023-02-11T06:31:43;7.90;99.90
52615;DHT22;38508;53.158;6.614;2023-02-11T06:34:09;8.00;99.90
52615;DHT22;38508;53.158;6.614;2023-02-11T06:36:35;8.00;99.90
52615;DHT22;38508;53.158;6.614;2023-02-11T06:39:01;7.90;99.90
52615;DHT22;38508;53.158;6.614;2023-02-11T06:41:27;7.90;99.90
52615;DHT22;38508;53.158;6.614;2023-02-11T06:43:52;7.80;99.90
52615;DHT22;38508;53.158;6.614;2023-02-11T06:46:18;7.80;99.90
52615;DHT22;38508;53.158;6.614;2023-02-11T06:48:44;7.80;99.90
52615;DHT22;38508;53.158;6.614;2023-02-11T06:51:11;7.70;99.90
52615;DHT22;38508;53.158;6.614;2023-02-11T06:53:45;7.70;99.90
52615;DHT22;38508;53.158;6.614;2023-02-11T06:56:14;7.80;99.90
52615;DHT22;38508;53.158;6.614;2023-02-11T06:58:40;7.80;99.90
52615;DHT22;38508;53.158;6.614;2023-02-11T07:01:08;7.70;99.90
52615;DHT22;38508;53.158;6.614;2023-02-11T07:03:35;7.70;99.90
52615;DHT22;38508;53.158;6.614;2023-02-11T07:06:02;7.80;99.90
52615;DHT22;38508;53.158;6.614;2023-02-11T07:08:31;7.80;99.90
52615;DHT22;38508;53.158;6.614;2023-02-11T07:10:56;7.80;99.90
52615;DHT22;38508;53.158;6.614;2023-02-11T07:13:22;7.80;99.90
52615;DHT22;38508;53.158;6.614;2023-02-11T07:15:48;7.90;99.90
52615;DHT22;38508;53.158;6.614;2023-02-11T07:18:14;7.90;99.90
52615;DHT22;38508;53.158;6.614;2023-02-11T07:20:40;7.80;99.90
52615;DHT22;38508;53.158;6.614;2023-02-11T07:23:05;7.90;99.90
52615;DHT22;38508;53.158;6.614;2023-02-11T07:25:31;7.90;99.90
52615;DHT22;38508;53.158;6.614;2023-02-11T07:27:57;7.90;99.90
52615;DHT22;38508;53.158;6.614;2023-02-11T07:30:22;7.90;99.90
52615;DHT22;38508;53.158;6.614;2023-02-11T07:32:48;7.90;99.90
52615;DHT22;38508;53.158;6.614;2023-02-11T07:35:14;7.90;99.90
52615;DHT22;38508;53.158;6.614;2023-02-11T07:37:40;8.00;99.90
52615;DHT22;38508;53.158;6.614;2023-02-11T07:40:07;8.00;99.90
52615;DHT22;38508;53.158;6.614;2023-02-11T07:42:34;8.10;99.90
52615;DHT22;38508;53.158;6.614;2023-02-11T07:44:59;8.10;99.90
52615;DHT22;38508;53.158;6.614;2023-02-11T07:47:25;8.10;99.90
52615;DHT22;38508;53.158;6.614;2023-02-11T07:49:51;8.10;99.90
52615;DHT22;38508;53.158;6.614;2023-02-11T07:52:17;8.10;99.90
52615;DHT22;38508;53.158;6.614;2023-02-11T07:54:42;8.10;99.90
52615;DHT22;38508;53.158;6.614;2023-02-11T07:57:08;8.10;99.90
52615;DHT22;38508;53.158;6.614;2023-02-11T07:59:34;8.10;99.90
52615;DHT22;38508;53.158;6.614;2023-02-11T08:02:00;8.00;99.90
52615;DHT22;38508;53.158;6.614;2023-02-11T08:04:25;8.10;99.90
52615;DHT22;38508;53.158;6.614;2023-02-11T08:06:51;8.20;99.90
52615;DHT22;38508;53.158;6.614;2023-02-11T08:09:18;8.20;99.90
52615;DHT22;38508;53.158;6.614;2023-02-11T08:11:44;8.20;99.90
52615;DHT22;38508;53.158;6.614;2023-02-11T08:14:11;8.30;99.90
52615;DHT22;38508;53.158;6.614;2023-02-11T08:16:37;8.20;99.90
52615;DHT22;38508;53.158;6.614;2023-02-11T08:19:06;8.30;99.90
52615;DHT22;38508;53.158;6.614;2023-02-11T08:21:32;8.30;99.90
52615;DHT22;38508;53.158;6.614;2023-02-11T08:23:59;8.40;99.90
52615;DHT22;38508;53.158;6.614;2023-02-11T08:26:27;8.30;99.90
52615;DHT22;38508;53.158;6.614;2023-02-11T08:28:55;8.30;99.90
52615;DHT22;38508;53.158;6.614;2023-02-11T08:31:26;8.30;99.90
52615;DHT22;38508;53.158;6.614;2023-02-11T08:33:53;8.30;99.90
52615;DHT22;38508;53.158;6.614;2023-02-11T08:36:25;8.40;99.90
52615;DHT22;38508;53.158;6.614;2023-02-11T08:38:55;8.40;99.90
52615;DHT22;38508;53.158;6.614;2023-02-11T08:41:21;8.50;99.90
52615;DHT22;38508;53.158;6.614;2023-02-11T08:43:47;8.50;99.90
52615;DHT22;38508;53.158;6.614;2023-02-11T08:46:16;8.60;99.90
52615;DHT22;38508;53.158;6.614;2023-02-11T08:48:42;8.60;99.90
52615;DHT22;38508;53.158;6.614;2023-02-11T08:51:12;8.70;99.90
52615;DHT22;38508;53.158;6.614;2023-02-11T08:53:37;8.70;99.90
52615;DHT22;38508;53.158;6.614;2023-02-11T08:56:04;8.80;99.90
52615;DHT22;38508;53.158;6.614;2023-02-11T08:58:31;8.90;99.90
52615;DHT22;38508;53.158;6.614;2023-02-11T09:00:57;8.90;99.90
52615;DHT22;38508;53.158;6.614;2023-02-11T09:03:23;9.00;99.90
52615;DHT22;38508;53.158;6.614;2023-02-11T09:05:50;8.90;99.90
52615;DHT22;38508;53.158;6.614;2023-02-11T09:08:19;8.90;99.90
52615;DHT22;38508;53.158;6.614;2023-02-11T09:10:45;9.00;99.90
52615;DHT22;38508;53.158;6.614;2023-02-11T09:13:11;8.80;99.90
52615;DHT22;38508;53.158;6.614;2023-02-11T09:15:37;8.90;99.90
52615;DHT22;38508;53.158;6.614;2023-02-11T09:18:03;8.90;99.90
52615;DHT22;38508;53.158;6.614;2023-02-11T09:20:29;8.90;99.90
52615;DHT22;38508;53.158;6.614;2023-02-11T09:22:57;8.80;99.90
52615;DHT22;38508;53.158;6.614;2023-02-11T09:25:23;8.90;99.90
52615;DHT22;38508;53.158;6.614;2023-02-11T09:27:49;8.80;99.90
52615;DHT22;38508;53.158;6.614;2023-02-11T09:30:16;8.80;99.90
52615;DHT22;38508;53.158;6.614;2023-02-11T09:32:42;8.90;99.90
52615;DHT22;38508;53.158;6.614;2023-02-11T09:35:08;9.00;99.90
52615;DHT22;38508;53.158;6.614;2023-02-11T09:37:34;9.10;99.90
52615;DHT22;38508;53.158;6.614;2023-02-11T09:40:01;9.10;99.90
52615;DHT22;38508;53.158;6.614;2023-02-11T09:44:56;9.00;99.90
52615;DHT22;38508;53.158;6.614;2023-02-11T09:47:27;9.10;99.90
52615;DHT22;38508;53.158;6.614;2023-02-11T09:50:02;9.10;99.90
52615;DHT22;38508;53.158;6.614;2023-02-11T09:52:31;9.10;99.90
52615;DHT22;38508;53.158;6.614;2023-02-11T09:55:00;9.00;99.90
52615;DHT22;38508;53.158;6.614;2023-02-11T09:57:35;9.00;99.90
52615;DHT22;38508;53.158;6.614;2023-02-11T10:05:32;9.50;99.90
52615;DHT22;38508;53.158;6.614;2023-02-11T10:11:33;9.50;99.90
52615;DHT22;38508;53.158;6.614;2023-02-11T10:17:56;9.70;99.90
52615;DHT22;38508;53.158;6.614;2023-02-11T10:20:11;9.90;99.90
52615;DHT22;38508;53.158;6.614;2023-02-11T10:23:00;9.80;99.90
52615;DHT22;38508;53.158;6.614;2023-02-11T10:25:44;9.80;99.90
52615;DHT22;38508;53.158;6.614;2023-02-11T10:28:17;9.90;99.90
52615;DHT22;38508;53.158;6.614;2023-02-11T10:30:51;9.80;99.90
52615;DHT22;38508;53.158;6.614;2023-02-11T10:36:11;9.90;99.90
52615;DHT22;38508;53.158;6.614;2023-02-11T10:38:37;9.90;99.90
52615;DHT22;38508;53.158;6.614;2023-02-11T10:41:04;10.00;99.90
52615;DHT22;38508;53.158;6.614;2023-02-11T10:43:31;10.10;99.90
52615;DHT22;38508;53.158;6.614;2023-02-11T10:45:58;10.10;99.90
52615;DHT22;38508;53.158;6.614;2023-02-11T10:48:47;10.10;99.90
52615;DHT22;38508;53.158;6.614;2023-02-11T10:51:24;10.00;99.90
52615;DHT22;38508;53.158;6.614;2023-02-11T10:56:33;10.10;99.90
52615;DHT22;38508;53.158;6.614;2023-02-11T11:01:53;10.10;99.90
52615;DHT22;38508;53.158;6.614;2023-02-11T11:12:33;10.30;99.90
52615;DHT22;38508;53.158;6.614;2023-02-11T11:17:28;10.20;99.90
52615;DHT22;38508;53.158;6.614;2023-02-11T11:20:20;10.20;99.90
52615;DHT22;38508;53.158;6.614;2023-02-11T11:22:48;10.20;99.90
52615;DHT22;38508;53.158;6.614;2023-02-11T11:25:26;10.20;99.90
52615;DHT22;38508;53.158;6.614;2023-02-11T11:27:56;10.20;99.90
52615;DHT22;38508;53.158;6.614;2023-02-11T11:30:25;10.20;99.90
52615;DHT22;38508;53.158;6.614;2023-02-11T11:32:52;10.30;99.90
52615;DHT22;38508;53.158;6.614;2023-02-11T11:35:26;10.20;99.90
52615;DHT22;38508;53.158;6.614;2023-02-11T11:37:56;10.30;99.90
52615;DHT22;38508;53.158;6.614;2023-02-11T11:40:25;10.40;99.90
52615;DHT22;38508;53.158;6.614;2023-02-11T11:43:21;10.40;99.90
52615;DHT22;38508;53.158;6.614;2023-02-11T11:45:56;10.40;99.90
52615;DHT22;38508;53.158;6.614;2023-02-11T11:48:36;10.40;99.90
52615;DHT22;38508;53.158;6.614;2023-02-11T11:51:09;10.40;99.90
52615;DHT22;38508;53.158;6.614;2023-02-11T11:53:52;10.50;99.90
52615;DHT22;38508;53.158;6.614;2023-02-11T11:56:26;10.50;99.90
52615;DHT22;38508;53.158;6.614;2023-02-11T11:58:53;10.50;99.90
52615;DHT22;38508;53.158;6.614;2023-02-11T12:06:56;10.50;99.90
52615;DHT22;38508;53.158;6.614;2023-02-11T12:24:04;10.50;99.90
52615;DHT22;38508;53.158;6.614;2023-02-11T12:26:35;10.50;99.90
52615;DHT22;38508;53.158;6.614;2023-02-11T12:40:41;10.60;99.90
52615;DHT22;38508;53.158;6.614;2023-02-11T12:56:37;10.80;99.90
52615;DHT22;38508;53.158;6.614;2023-02-11T13:01:46;10.80;99.90
52615;DHT22;38508;53.158;6.614;2023-02-11T13:04:25;10.80;99.90
52615;DHT22;38508;53.158;6.614;2023-02-11T13:06:57;10.80;99.90
52615;DHT22;38508;53.158;6.614;2023-02-11T13:09:37;10.80;99.90
52615;DHT22;38508;53.158;6.614;2023-02-11T13:12:06;10.80;99.90
52615;DHT22;38508;53.158;6.614;2023-02-11T13:14:56;10.80;99.90
52615;DHT22;38508;53.158;6.614;2023-02-11T13:17:33;10.80;99.90
52615;DHT22;38508;53.158;6.614;2023-02-11T13:20:19;10.70;99.90
52615;DHT22;38508;53.158;6.614;2023-02-11T13:22:58;10.70;99.90
52615;DHT22;38508;53.158;6.614;2023-02-11T13:25:35;10.60;99.90
52615;DHT22;38508;53.158;6.614;2023-02-11T13:28:17;10.70;99.90
52615;DHT22;38508;53.158;6.614;2023-02-11T13:30:46;10.70;99.90
52615;DHT22;38508;53.158;6.614;2023-02-11T13:35:46;10.50;99.90
52615;DHT22;38508;53.158;6.614;2023-02-11T13:38:21;10.50;99.90
52615;DHT22;38508;53.158;6.614;2023-02-11T13:43:33;10.50;99.90
52615;DHT22;38508;53.158;6.614;2023-02-11T13:46:06;10.60;99.90
52615;DHT22;38508;53.158;6.614;2023-02-11T13:48:37;10.60;99.90
52615;DHT22;38508;53.158;6.614;2023-02-11T13:51:08;10.60;99.90
52615;DHT22;38508;53.158;6.614;2023-02-11T13:53:50;10.60;99.90
52615;DHT22;38508;53.158;6.614;2023-02-11T13:56:37;10.70;99.90
52615;DHT22;38508;53.158;6.614;2023-02-11T14:08:18;10.70;99.90
52615;DHT22;38508;53.158;6.614;2023-02-11T14:11:07;10.60;99.90
52615;DHT22;38508;53.158;6.614;2023-02-11T14:16:19;10.50;99.90
52615;DHT22;38508;53.158;6.614;2023-02-11T14:23:53;10.60;99.90
52615;DHT22;38508;53.158;6.614;2023-02-11T14:26:24;10.70;99.90
52615;DHT22;38508;53.158;6.614;2023-02-11T14:39:57;10.80;99.90
52615;DHT22;38508;53.158;6.614;2023-02-11T14:42:26;10.70;99.90
52615;DHT22;38508;53.158;6.614;2023-02-11T14:45:02;10.60;99.90
52615;DHT22;38508;53.158;6.614;2023-02-11T14:47:34;10.50;99.90
52615;DHT22;38508;53.158;6.614;2023-02-11T14:50:01;10.50;99.90
52615;DHT22;38508;53.158;6.614;2023-02-11T14:52:32;10.40;99.90
52615;DHT22;38508;53.158;6.614;2023-02-11T14:55:25;10.50;99.90
52615;DHT22;38508;53.158;6.614;2023-02-11T15:01:01;10.50;99.90
52615;DHT22;38508;53.158;6.614;2023-02-11T15:03:48;10.50;99.90
52615;DHT22;38508;53.158;6.614;2023-02-11T15:09:20;10.50;99.90
52615;DHT22;38508;53.158;6.614;2023-02-11T15:11:50;10.40;99.90
52615;DHT22;38508;53.158;6.614;2023-02-11T15:14:23;10.50;99.90
52615;DHT22;38508;53.158;6.614;2023-02-11T15:16:51;10.40;99.90
52615;DHT22;38508;53.158;6.614;2023-02-11T15:19:45;10.40;99.90
52615;DHT22;38508;53.158;6.614;2023-02-11T15:22:24;10.40;99.90
52615;DHT22;38508;53.158;6.614;2023-02-11T15:32:49;10.50;99.90
52615;DHT22;38508;53.158;6.614;2023-02-11T15:35:16;10.40;99.90
52615;DHT22;38508;53.158;6.614;2023-02-11T15:37:42;10.40;99.90
52615;DHT22;38508;53.158;6.614;2023-02-11T15:40:23;10.50;99.90
52615;DHT22;38508;53.158;6.614;2023-02-11T15:43:06;10.40;99.90
52615;DHT22;38508;53.158;6.614;2023-02-11T15:45:33;10.40;99.90
52615;DHT22;38508;53.158;6.614;2023-02-11T15:50:32;10.40;99.90
52615;DHT22;38508;53.158;6.614;2023-02-11T15:53:37;10.40;99.90
52615;DHT22;38508;53.158;6.614;2023-02-11T15:58:27;10.40;99.90
52615;DHT22;38508;53.158;6.614;2023-02-11T16:00:53;10.40;99.90
52615;DHT22;38508;53.158;6.614;2023-02-11T16:03:25;10.40;99.90
52615;DHT22;38508;53.158;6.614;2023-02-11T16:05:53;10.50;99.90
52615;DHT22;38508;53.158;6.614;2023-02-11T16:08:26;10.40;99.90
52615;DHT22;38508;53.158;6.614;2023-02-11T16:10:59;10.30;99.90
52615;DHT22;38508;53.158;6.614;2023-02-11T16:13:29;10.40;99.90
52615;DHT22;38508;53.158;6.614;2023-02-11T16:16:01;10.40;99.90
52615;DHT22;38508;53.158;6.614;2023-02-11T16:18:30;10.40;99.90
52615;DHT22;38508;53.158;6.614;2023-02-11T16:20:57;10.50;99.90
52615;DHT22;38508;53.158;6.614;2023-02-11T16:23:35;10.60;99.90
52615;DHT22;38508;53.158;6.614;2023-02-11T16:26:19;10.50;99.90
52615;DHT22;38508;53.158;6.614;2023-02-11T16:28:46;10.60;99.90
52615;DHT22;38508;53.158;6.614;2023-02-11T16:31:12;10.60;99.90
52615;DHT22;38508;53.158;6.614;2023-02-11T16:33:38;10.50;99.90
52615;DHT22;38508;53.158;6.614;2023-02-11T16:36:12;10.40;99.90
52615;DHT22;38508;53.158;6.614;2023-02-11T16:38:38;10.40;99.90
52615;DHT22;38508;53.158;6.614;2023-02-11T16:41:04;10.40;99.90
52615;DHT22;38508;53.158;6.614;2023-02-11T16:43:29;10.50;99.90
52615;DHT22;38508;53.158;6.614;2023-02-11T16:45:57;10.50;99.90
52615;DHT22;38508;53.158;6.614;2023-02-11T16:48:23;10.50;99.90
52615;DHT22;38508;53.158;6.614;2023-02-11T16:50:49;10.50;99.90
52615;DHT22;38508;53.158;6.614;2023-02-11T16:53:23;10.40;99.90
52615;DHT22;38508;53.158;6.614;2023-02-11T16:55:51;10.40;99.90
52615;DHT22;38508;53.158;6.614;2023-02-11T16:58:18;10.40;99.90
52615;DHT22;38508;53.158;6.614;2023-02-11T17:00:45;10.30;99.90
52615;DHT22;38508;53.158;6.614;2023-02-11T17:03:24;10.30;99.90
52615;DHT22;38508;53.158;6.614;2023-02-11T17:05:51;10.30;99.90
52615;DHT22;38508;53.158;6.614;2023-02-11T17:08:18;10.40;99.90
52615;DHT22;38508;53.158;6.614;2023-02-11T17:10:43;10.40;99.90
52615;DHT22;38508;53.158;6.614;2023-02-11T17:13:09;10.40;99.90
52615;DHT22;38508;53.158;6.614;2023-02-11T17:15:35;10.40;99.90
52615;DHT22;38508;53.158;6.614;2023-02-11T17:18:01;10.50;99.90
52615;DHT22;38508;53.158;6.614;2023-02-11T17:20:27;10.60;99.90
52615;DHT22;38508;53.158;6.614;2023-02-11T17:22:52;10.60;99.90
52615;DHT22;38508;53.158;6.614;2023-02-11T17:25:18;10.60;99.90
52615;DHT22;38508;53.158;6.614;2023-02-11T17:27:44;10.40;99.90
52615;DHT22;38508;53.158;6.614;2023-02-11T17:30:11;10.30;99.90
52615;DHT22;38508;53.158;6.614;2023-02-11T17:32:37;10.40;99.90
52615;DHT22;38508;53.158;6.614;2023-02-11T17:35:03;10.30;99.90
52615;DHT22;38508;53.158;6.614;2023-02-11T17:37:32;10.10;99.90
52615;DHT22;38508;53.158;6.614;2023-02-11T17:39:58;10.20;99.90
52615;DHT22;38508;53.158;6.614;2023-02-11T17:42:23;10.10;99.90
52615;DHT22;38508;53.158;6.614;2023-02-11T17:44:49;9.90;99.90
52615;DHT22;38508;53.158;6.614;2023-02-11T17:47:15;9.90;99.90
52615;DHT22;38508;53.158;6.614;2023-02-11T17:49:41;9.80;99.90
52615;DHT22;38508;53.158;6.614;2023-02-11T17:52:06;9.70;99.90
52615;DHT22;38508;53.158;6.614;2023-02-11T17:54:32;9.80;99.90
52615;DHT22;38508;53.158;6.614;2023-02-11T17:56:58;9.80;99.90
52615;DHT22;38508;53.158;6.614;2023-02-11T17:59:24;9.90;99.90
52615;DHT22;38508;53.158;6.614;2023-02-11T18:01:51;9.90;99.90
52615;DHT22;38508;53.158;6.614;2023-02-11T18:04:18;10.00;99.90
52615;DHT22;38508;53.158;6.614;2023-02-11T18:06:45;9.90;99.90
52615;DHT22;38508;53.158;6.614;2023-02-11T18:09:11;10.00;99.90
52615;DHT22;38508;53.158;6.614;2023-02-11T18:11:38;10.00;99.90
52615;DHT22;38508;53.158;6.614;2023-02-11T18:14:05;9.90;99.90
52615;DHT22;38508;53.158;6.614;2023-02-11T18:16:32;10.00;99.90
52615;DHT22;38508;53.158;6.614;2023-02-11T18:19:02;9.90;99.90
52615;DHT22;38508;53.158;6.614;2023-02-11T18:21:28;9.90;99.90
52615;DHT22;38508;53.158;6.614;2023-02-11T18:23:54;9.80;99.90
52615;DHT22;38508;53.158;6.614;2023-02-11T18:26:21;9.60;99.90
52615;DHT22;38508;53.158;6.614;2023-02-11T18:28:51;9.70;99.90
52615;DHT22;38508;53.158;6.614;2023-02-11T18:31:17;9.60;99.90
52615;DHT22;38508;53.158;6.614;2023-02-11T18:33:43;9.60;99.90
52615;DHT22;38508;53.158;6.614;2023-02-11T18:36:14;9.70;99.90
52615;DHT22;38508;53.158;6.614;2023-02-11T18:38:40;9.60;99.90
52615;DHT22;38508;53.158;6.614;2023-02-11T18:41:06;9.60;99.90